Terminal Aerodrome Forecast
Issued by NWS

Home | Current Version | Previous Version | Graphics & Text | Print | Product List | Glossary On
Versions: 1 2 3 4 5 6 7 8 9 10 11 12 13 14 15 16 17 18 19 20 21 22 23 24
000
FTUS43 KGRB 232320
TAFMTW
TAF
KMTW 232320Z 2400/2424 05008G15KT 3SM -RA BR SCT007 OVC015
      TEMPO 2400/2404 2SM RA BR OVC007
     FM240400 03011G16KT 2SM RA BR OVC015
     FM240700 03012G18KT 2SM -RA BR OVC008
     FM241500 03013G21KT 3SM -RA BR OVC003
     FM241700 03015G23KT 4SM BR VCSH BKN008 OVC012
     FM242300 03013KT P6SM BKN012=

USA.gov is the U.S. government's official web portal to all federal, state and local government web resources and services.